createdAt,value
2018-07-16T00:00:28.744Z,976.29
2018-07-16T00:01:28.657Z,976.33
2018-07-16T00:02:28.579Z,976.28
2018-07-16T00:03:28.514Z,976.30
2018-07-16T00:04:28.428Z,976.29
2018-07-16T00:05:28.363Z,976.30
2018-07-16T00:06:28.289Z,976.29
2018-07-16T00:07:28.218Z,976.29
2018-07-16T00:08:28.135Z,976.24
2018-07-16T00:09:28.063Z,976.25
2018-07-16T00:10:27.991Z,976.29
2018-07-16T00:11:27.914Z,976.28
2018-07-16T00:12:27.837Z,976.26
2018-07-16T00:13:27.769Z,976.28
2018-07-16T00:14:27.688Z,976.24
2018-07-16T00:15:27.623Z,976.26
2018-07-16T00:16:27.540Z,976.22
2018-07-16T00:17:27.475Z,976.26
2018-07-16T00:18:27.393Z,976.25
2018-07-16T00:19:27.325Z,976.28
2018-07-16T00:20:27.240Z,976.25
2018-07-16T00:21:27.178Z,976.24
2018-07-16T00:22:27.096Z,976.23
2018-07-16T00:23:27.029Z,976.21
2018-07-16T00:24:26.949Z,976.25
2018-07-16T00:25:26.881Z,976.21
2018-07-16T00:26:26.802Z,976.21
2018-07-16T00:27:26.734Z,976.20
2018-07-16T00:28:26.651Z,976.16
2018-07-16T00:29:26.595Z,976.13
2018-07-16T00:30:26.501Z,976.14
2018-07-16T00:31:26.436Z,976.12
2018-07-16T00:32:26.354Z,976.10
2018-07-16T00:33:26.287Z,976.09
2018-07-16T00:34:26.210Z,976.12
2018-07-16T00:35:26.141Z,976.13
2018-07-16T00:36:26.055Z,976.11
2018-07-16T00:37:25.991Z,976.11
2018-07-16T00:38:25.911Z,976.14
2018-07-16T00:39:25.843Z,976.15
2018-07-16T00:40:25.759Z,976.16
2018-07-16T00:41:25.698Z,976.13
2018-07-16T00:42:25.613Z,976.11
2018-07-16T00:43:25.548Z,976.12
2018-07-16T00:44:25.486Z,976.14
2018-07-16T00:45:25.399Z,976.13
2018-07-16T00:46:25.314Z,976.12
2018-07-16T00:47:25.251Z,976.11
2018-07-16T00:48:25.172Z,976.10
2018-07-16T00:49:25.107Z,976.11
2018-07-16T00:50:25.020Z,976.07
2018-07-16T00:51:24.953Z,976.10
2018-07-16T00:52:24.871Z,976.08
2018-07-16T00:53:24.802Z,976.07
2018-07-16T00:54:24.717Z,976.06
2018-07-16T00:55:24.660Z,976.05
2018-07-16T00:56:24.629Z,976.10
2018-07-16T00:57:24.511Z,976.05
2018-07-16T00:58:24.426Z,976.09
2018-07-16T00:59:24.365Z,976.10
2018-07-16T01:00:24.283Z,976.09
2018-07-16T01:01:24.210Z,976.14
2018-07-16T01:02:24.134Z,976.13
2018-07-16T01:03:24.067Z,976.14
2018-07-16T01:04:23.982Z,976.12
2018-07-16T01:05:23.913Z,976.12
2018-07-16T01:06:23.835Z,976.10
2018-07-16T01:07:23.770Z,976.09
2018-07-16T01:08:23.689Z,976.09
2018-07-16T01:09:23.625Z,976.07
2018-07-16T01:10:23.539Z,976.12
2018-07-16T01:11:23.472Z,976.08
2018-07-16T01:12:23.387Z,976.11
2018-07-16T01:13:23.325Z,976.10
2018-07-16T01:14:23.242Z,976.08
2018-07-16T01:15:23.174Z,976.08
2018-07-16T01:16:23.093Z,976.10
2018-07-16T01:17:23.028Z,976.08
2018-07-16T01:18:22.945Z,976.04
2018-07-16T01:19:22.877Z,976.02
2018-07-16T01:20:22.796Z,976.03
2018-07-16T01:21:22.730Z,976.02
2018-07-16T01:22:22.648Z,976.01
2018-07-16T01:23:22.582Z,976.02
2018-07-16T01:24:22.501Z,975.96
2018-07-16T01:25:22.434Z,975.94
2018-07-16T01:26:22.353Z,975.99
2018-07-16T01:27:22.286Z,975.99
2018-07-16T01:28:22.203Z,975.98
2018-07-16T01:29:22.138Z,976.01
2018-07-16T01:30:22.055Z,976.00
2018-07-16T01:31:21.990Z,976.00
2018-07-16T01:32:21.908Z,975.99
2018-07-16T01:33:21.845Z,975.99
2018-07-16T01:34:21.760Z,975.96
2018-07-16T01:35:21.695Z,975.98
2018-07-16T01:36:21.611Z,975.94
2018-07-16T01:37:21.546Z,975.96
2018-07-16T01:38:21.465Z,975.93
2018-07-16T01:39:21.396Z,975.94
2018-07-16T01:40:21.318Z,975.92
2018-07-16T01:41:21.257Z,975.93
2018-07-16T01:42:21.168Z,975.95
2018-07-16T01:43:21.105Z,975.95
2018-07-16T01:44:21.019Z,976.00
2018-07-16T01:45:20.958Z,976.00
2018-07-16T01:46:20.872Z,976.01
2018-07-16T01:47:20.814Z,975.98
2018-07-16T01:48:20.727Z,976.00
2018-07-16T01:49:20.662Z,975.98
2018-07-16T01:50:20.577Z,976.04
2018-07-16T01:51:20.511Z,976.04
2018-07-16T01:52:20.432Z,976.02
2018-07-16T01:53:20.364Z,976.00
2018-07-16T01:54:20.281Z,976.01
2018-07-16T01:55:20.214Z,975.98
2018-07-16T01:56:20.135Z,975.97
2018-07-16T01:57:20.069Z,975.95
2018-07-16T01:58:19.986Z,975.93
2018-07-16T01:59:19.919Z,975.93
2018-07-16T02:00:19.838Z,975.97
2018-07-16T02:01:19.772Z,975.96
2018-07-16T02:02:19.691Z,975.97
2018-07-16T02:03:19.626Z,975.97
2018-07-16T02:04:19.544Z,975.96
2018-07-16T02:05:19.476Z,975.99
2018-07-16T02:06:19.394Z,975.97
2018-07-16T02:07:19.332Z,975.99
2018-07-16T02:08:19.249Z,976.03
2018-07-16T02:09:19.180Z,975.99
2018-07-16T02:10:19.098Z,976.01
2018-07-16T02:11:19.037Z,976.03
2018-07-16T02:12:18.951Z,976.04
2018-07-16T02:13:18.885Z,976.00
2018-07-16T02:14:18.803Z,976.02
2018-07-16T02:15:18.737Z,976.00
2018-07-16T02:16:18.654Z,975.97
2018-07-16T02:17:18.634Z,975.96
2018-07-16T02:18:18.507Z,975.96
2018-07-16T02:19:18.545Z,975.97
2018-07-16T02:20:18.362Z,975.96
2018-07-16T02:21:18.299Z,975.94
2018-07-16T02:22:18.213Z,975.98
2018-07-16T02:23:18.164Z,975.94
2018-07-16T02:24:18.063Z,975.94
2018-07-16T02:25:18.073Z,975.90
2018-07-16T02:26:17.918Z,975.89
2018-07-16T02:27:17.880Z,975.92
2018-07-16T02:28:17.767Z,975.86
2018-07-16T02:29:17.704Z,975.87
2018-07-16T02:30:17.697Z,975.83
2018-07-16T02:31:17.550Z,975.80
2018-07-16T02:32:17.478Z,975.80
2018-07-16T02:33:17.403Z,975.78
2018-07-16T02:34:17.334Z,975.80
2018-07-16T02:35:17.261Z,975.77
2018-07-16T02:36:17.183Z,975.72
2018-07-16T02:37:17.102Z,975.76
2018-07-16T02:38:17.037Z,975.75
2018-07-16T02:39:16.954Z,975.71
2018-07-16T02:40:16.893Z,975.73
2018-07-16T02:41:16.808Z,975.74
2018-07-16T02:42:16.750Z,975.72
2018-07-16T02:43:16.660Z,975.69
2018-07-16T02:44:16.591Z,975.67
2018-07-16T02:45:16.524Z,975.63
2018-07-16T02:46:16.446Z,975.62
2018-07-16T02:47:16.360Z,975.61
2018-07-16T02:48:16.454Z,975.58
2018-07-16T02:49:16.215Z,975.62
2018-07-16T02:50:16.148Z,975.63
2018-07-16T02:51:16.067Z,975.62
2018-07-16T02:52:16.105Z,975.65
2018-07-16T02:53:15.925Z,975.64
2018-07-16T02:54:15.909Z,975.65
2018-07-16T02:55:15.772Z,975.62
2018-07-16T02:56:15.743Z,975.67
2018-07-16T02:57:15.625Z,975.63
2018-07-16T02:58:15.629Z,975.64
2018-07-16T02:59:15.478Z,975.62
2018-07-16T03:00:15.441Z,975.65
2018-07-16T03:01:15.329Z,975.65
2018-07-16T03:02:15.354Z,975.64
2018-07-16T03:03:15.180Z,975.63
2018-07-16T03:04:15.163Z,975.63
2018-07-16T03:05:15.034Z,975.65
2018-07-16T03:06:15.069Z,975.66
2018-07-16T03:07:14.884Z,975.64
2018-07-16T03:08:14.880Z,975.68
2018-07-16T03:09:14.738Z,975.67
2018-07-16T03:10:14.687Z,975.67
2018-07-16T03:11:14.590Z,975.68
2018-07-16T03:12:14.596Z,975.71
2018-07-16T03:13:14.444Z,975.73
2018-07-16T03:14:14.369Z,975.71
2018-07-16T03:15:14.357Z,975.71
2018-07-16T03:16:14.218Z,975.73
2018-07-16T03:17:14.168Z,975.78
2018-07-16T03:18:14.151Z,975.77
2018-07-16T03:19:14.007Z,975.78
2018-07-16T03:20:13.923Z,975.81
2018-07-16T03:21:13.860Z,975.80
2018-07-16T03:22:13.777Z,975.85
2018-07-16T03:23:13.711Z,975.80
2018-07-16T03:24:13.626Z,975.79
2018-07-16T03:25:13.565Z,975.76
2018-07-16T03:26:13.479Z,975.76
2018-07-16T03:27:13.426Z,975.76
2018-07-16T03:28:13.330Z,975.74
2018-07-16T03:29:13.265Z,975.76
2018-07-16T03:30:13.186Z,975.80
2018-07-16T03:31:13.120Z,975.78
2018-07-16T03:32:13.037Z,975.78
2018-07-16T03:33:12.971Z,975.78
2018-07-16T03:34:12.890Z,975.79
2018-07-16T03:35:12.827Z,975.77
2018-07-16T03:36:12.744Z,975.82
2018-07-16T03:37:12.674Z,975.78
2018-07-16T03:38:12.594Z,975.81
2018-07-16T03:39:12.527Z,975.81
2018-07-16T03:40:12.454Z,975.82
2018-07-16T03:41:12.380Z,975.84
2018-07-16T03:42:12.301Z,975.78
2018-07-16T03:43:12.232Z,975.85
2018-07-16T03:44:12.147Z,975.82
2018-07-16T03:45:12.083Z,975.83
2018-07-16T03:46:12.004Z,975.79
2018-07-16T03:47:11.936Z,975.82
2018-07-16T03:48:11.855Z,975.80
2018-07-16T03:49:11.792Z,975.81
2018-07-16T03:50:11.706Z,975.74
2018-07-16T03:51:11.645Z,975.76
2018-07-16T03:52:11.559Z,975.73
2018-07-16T03:53:11.491Z,975.78
2018-07-16T03:54:11.408Z,975.77
2018-07-16T03:55:11.344Z,975.74
2018-07-16T03:56:11.263Z,975.77
2018-07-16T03:57:11.198Z,975.75
2018-07-16T03:58:11.116Z,975.79
2018-07-16T03:59:11.053Z,975.76
2018-07-16T04:00:10.968Z,975.78
2018-07-16T04:01:10.901Z,975.80
2018-07-16T04:02:10.819Z,975.76
2018-07-16T04:03:10.755Z,975.76
2018-07-16T04:04:10.673Z,975.73
2018-07-16T04:05:10.609Z,975.72
2018-07-16T04:06:10.525Z,975.71
2018-07-16T04:07:10.458Z,975.73
2018-07-16T04:08:10.383Z,975.69
2018-07-16T04:09:10.304Z,975.70
2018-07-16T04:10:10.238Z,975.69
2018-07-16T04:11:10.157Z,975.70
2018-07-16T04:12:10.090Z,975.71
2018-07-16T04:13:10.009Z,975.69
2018-07-16T04:14:09.941Z,975.71
2018-07-16T04:15:09.862Z,975.68
2018-07-16T04:16:09.796Z,975.69
2018-07-16T04:17:09.713Z,975.70
2018-07-16T04:18:09.645Z,975.71
2018-07-16T04:19:09.564Z,975.71
2018-07-16T04:20:09.500Z,975.71
2018-07-16T04:21:09.419Z,975.69
2018-07-16T04:22:09.352Z,975.69
2018-07-16T04:23:09.271Z,975.68
2018-07-16T04:24:09.205Z,975.69
2018-07-16T04:25:09.122Z,975.72
2018-07-16T04:26:09.057Z,975.68
2018-07-16T04:27:08.975Z,975.71
2018-07-16T04:28:08.908Z,975.71
2018-07-16T04:29:08.828Z,975.72
2018-07-16T04:30:08.763Z,975.69
2018-07-16T04:31:08.680Z,975.71
2018-07-16T04:32:08.614Z,975.73
2018-07-16T04:33:08.537Z,975.75
2018-07-16T04:34:08.466Z,975.74
2018-07-16T04:35:08.387Z,975.70
2018-07-16T04:36:08.318Z,975.75
2018-07-16T04:37:08.236Z,975.78
2018-07-16T04:38:08.174Z,975.78
2018-07-16T04:39:08.089Z,975.77
2018-07-16T04:40:08.020Z,975.79
2018-07-16T04:41:07.943Z,975.77
2018-07-16T04:42:07.874Z,975.79
2018-07-16T04:43:07.793Z,975.82
2018-07-16T04:44:07.727Z,975.80
2018-07-16T04:45:07.649Z,975.82
2018-07-16T04:46:07.580Z,975.80
2018-07-16T04:47:07.503Z,975.78
2018-07-16T04:48:07.431Z,975.75
2018-07-16T04:49:07.358Z,975.73
2018-07-16T04:50:07.287Z,975.72
2018-07-16T04:51:07.204Z,975.73
2018-07-16T04:52:07.138Z,975.73
2018-07-16T04:53:07.055Z,975.75
2018-07-16T04:54:06.989Z,975.75
2018-07-16T04:55:06.914Z,975.79
2018-07-16T04:56:06.889Z,975.79
2018-07-16T04:57:06.765Z,975.81
2018-07-16T04:58:06.702Z,975.76
2018-07-16T04:59:06.617Z,975.73
2018-07-16T05:00:06.547Z,975.73
2018-07-16T05:01:06.469Z,975.70
2018-07-16T05:02:06.395Z,975.70
2018-07-16T05:03:06.386Z,975.72
2018-07-16T05:04:06.251Z,975.68
2018-07-16T05:05:06.172Z,975.66
2018-07-16T05:06:06.107Z,975.66
2018-07-16T05:07:06.026Z,975.67
2018-07-16T05:08:05.962Z,975.70
2018-07-16T05:09:05.876Z,975.70
2018-07-16T05:10:05.811Z,975.69
2018-07-16T05:11:05.731Z,975.69
2018-07-16T05:12:05.661Z,975.68
2018-07-16T05:13:05.586Z,975.68
2018-07-16T05:14:05.522Z,975.68
2018-07-16T05:15:05.439Z,975.69
2018-07-16T05:16:05.367Z,975.68
2018-07-16T05:17:05.290Z,975.73
2018-07-16T05:18:05.234Z,975.72
2018-07-16T05:19:05.142Z,975.76
2018-07-16T05:20:05.079Z,975.74
2018-07-16T05:21:04.995Z,975.73
2018-07-16T05:22:04.930Z,975.73
2018-07-16T05:23:04.849Z,975.73
2018-07-16T05:24:04.788Z,975.72
2018-07-16T05:25:04.707Z,975.74
2018-07-16T05:26:04.639Z,975.76
2018-07-16T05:27:04.556Z,975.73
2018-07-16T05:28:04.487Z,975.72
2018-07-16T05:29:04.414Z,975.75
2018-07-16T05:30:04.343Z,975.76
2018-07-16T05:31:04.261Z,975.74
2018-07-16T05:32:04.262Z,975.76
2018-07-16T05:33:04.113Z,975.78
2018-07-16T05:34:04.046Z,975.79
2018-07-16T05:35:03.968Z,975.76
2018-07-16T05:36:03.906Z,975.79
2018-07-16T05:37:03.820Z,975.75
2018-07-16T05:38:03.766Z,975.77
2018-07-16T05:39:03.674Z,975.73
2018-07-16T05:40:03.607Z,975.73
2018-07-16T05:41:03.526Z,975.73
2018-07-16T05:42:03.464Z,975.71
2018-07-16T05:43:03.380Z,975.73
2018-07-16T05:44:03.316Z,975.69
2018-07-16T05:45:03.233Z,975.69
2018-07-16T05:46:03.169Z,975.67
2018-07-16T05:47:03.087Z,975.71
2018-07-16T05:48:03.021Z,975.66
2018-07-16T05:49:02.942Z,975.66
2018-07-16T05:50:02.875Z,975.70
2018-07-16T05:51:02.797Z,975.74
2018-07-16T05:52:02.725Z,975.72
2018-07-16T05:53:02.645Z,975.70
2018-07-16T05:54:02.582Z,975.70
2018-07-16T05:55:02.503Z,975.71
2018-07-16T05:56:02.435Z,975.71
2018-07-16T05:57:02.355Z,975.73
2018-07-16T05:58:02.290Z,975.74
2018-07-16T05:59:02.210Z,975.71
2018-07-16T06:00:02.145Z,975.70
2018-07-16T06:01:02.063Z,975.73
2018-07-16T06:02:02.000Z,975.75
2018-07-16T06:03:01.915Z,975.76
2018-07-16T06:04:01.843Z,975.78
2018-07-16T06:05:01.813Z,975.79
2018-07-16T06:06:01.695Z,975.78
2018-07-16T06:07:01.727Z,975.82
2018-07-16T06:08:01.551Z,975.84
2018-07-16T06:09:01.531Z,975.84
2018-07-16T06:10:01.406Z,975.83
2018-07-16T06:11:01.445Z,975.85
2018-07-16T06:12:01.258Z,975.88
2018-07-16T06:13:01.256Z,975.88
2018-07-16T06:14:01.115Z,975.93
2018-07-16T06:15:01.066Z,975.88
2018-07-16T06:16:00.965Z,975.88
2018-07-16T06:17:00.975Z,975.88
2018-07-16T06:18:00.819Z,975.91
2018-07-16T06:19:00.781Z,975.90
2018-07-16T06:20:00.672Z,975.91
2018-07-16T06:21:00.749Z,975.90
2018-07-16T06:22:00.526Z,975.92
2018-07-16T06:23:00.504Z,975.89
2018-07-16T06:24:00.432Z,975.87
2018-07-16T06:25:00.415Z,975.89
2018-07-16T06:26:00.238Z,975.92
2018-07-16T06:27:00.224Z,975.88
2018-07-16T06:28:00.090Z,975.88
2018-07-16T06:29:00.138Z,975.88
2018-07-16T06:29:59.942Z,975.88
2018-07-16T06:30:59.950Z,975.88
2018-07-16T06:31:59.796Z,975.91
2018-07-16T06:32:59.754Z,975.89
2018-07-16T06:33:59.653Z,975.90
2018-07-16T06:34:59.666Z,975.93
2018-07-16T06:35:59.506Z,975.91
2018-07-16T06:36:59.475Z,975.93
2018-07-16T06:37:59.359Z,975.93
2018-07-16T06:38:59.385Z,975.95
2018-07-16T06:39:59.307Z,975.97
2018-07-16T06:40:59.333Z,976.00
2018-07-16T06:41:59.073Z,975.98
2018-07-16T06:42:59.000Z,975.99
2018-07-16T06:43:58.922Z,975.98
2018-07-16T06:44:58.918Z,976.00
2018-07-16T06:45:58.777Z,975.99
2018-07-16T06:46:58.726Z,976.03
2018-07-16T06:47:58.630Z,975.98
2018-07-16T06:48:58.636Z,976.00
2018-07-16T06:49:58.486Z,975.99
2018-07-16T06:50:58.447Z,976.02
2018-07-16T06:51:58.339Z,976.02
2018-07-16T06:52:58.358Z,976.00
2018-07-16T06:53:58.195Z,976.01
2018-07-16T06:54:58.190Z,976.02
2018-07-16T06:55:58.045Z,976.00
2018-07-16T06:56:58.077Z,976.00
2018-07-16T06:57:57.905Z,975.99
2018-07-16T06:58:57.890Z,976.05
2018-07-16T06:59:57.759Z,976.05
2018-07-16T07:00:57.797Z,976.00
2018-07-16T07:01:57.615Z,976.02
2018-07-16T07:02:57.612Z,976.06
2018-07-16T07:03:57.468Z,976.09
2018-07-16T07:04:57.519Z,976.07
2018-07-16T07:05:57.324Z,976.05
2018-07-16T07:06:57.329Z,976.08
2018-07-16T07:07:57.184Z,976.02
2018-07-16T07:08:57.135Z,976.05
2018-07-16T07:09:57.046Z,976.05
2018-07-16T07:10:57.047Z,976.08
2018-07-16T07:11:56.889Z,976.07
2018-07-16T07:12:56.857Z,976.04
2018-07-16T07:13:56.747Z,976.02
2018-07-16T07:14:56.769Z,976.02
2018-07-16T07:15:56.598Z,976.02
2018-07-16T07:16:56.574Z,976.01
2018-07-16T07:17:56.454Z,975.96
2018-07-16T07:18:56.487Z,975.96
2018-07-16T07:19:56.310Z,975.99
2018-07-16T07:20:56.297Z,975.96
2018-07-16T07:21:56.166Z,975.98
2018-07-16T07:22:56.096Z,975.97
2018-07-16T07:23:56.114Z,975.97
2018-07-16T07:24:55.949Z,975.95
2018-07-16T07:25:55.922Z,975.93
2018-07-16T07:26:55.805Z,975.94
2018-07-16T07:27:55.829Z,975.96
2018-07-16T07:28:55.659Z,975.96
2018-07-16T07:29:55.642Z,975.95
2018-07-16T07:30:55.526Z,975.95
2018-07-16T07:31:55.554Z,975.96
2018-07-16T07:32:55.369Z,975.96
2018-07-16T07:33:55.364Z,975.95
2018-07-16T07:34:55.249Z,975.95
2018-07-16T07:35:55.243Z,975.94
2018-07-16T07:36:55.082Z,975.94
2018-07-16T07:37:55.083Z,975.92
2018-07-16T07:38:54.939Z,975.92
2018-07-16T07:39:54.893Z,975.94
2018-07-16T07:40:54.793Z,975.92
2018-07-16T07:41:54.804Z,975.91
2018-07-16T07:42:54.647Z,975.96
2018-07-16T07:43:54.582Z,975.97
2018-07-16T07:44:54.504Z,975.98
2018-07-16T07:45:54.529Z,976.00
2018-07-16T07:46:54.360Z,976.02
2018-07-16T07:47:54.334Z,976.00
2018-07-16T07:48:54.218Z,976.04
2018-07-16T07:49:54.244Z,976.04
2018-07-16T07:50:54.075Z,976.01
2018-07-16T07:51:54.060Z,976.01
2018-07-16T07:52:53.924Z,976.01
2018-07-16T07:53:53.965Z,975.99
2018-07-16T07:54:54.089Z,976.02
2018-07-16T07:55:53.776Z,976.00
2018-07-16T07:56:53.636Z,975.99
2018-07-16T07:57:53.566Z,976.00
2018-07-16T07:58:53.496Z,976.00
2018-07-16T07:59:53.497Z,976.03
2018-07-16T08:00:53.350Z,976.05
2018-07-16T08:01:53.311Z,976.01
2018-07-16T08:02:53.211Z,976.03
2018-07-16T08:03:53.217Z,976.03
2018-07-16T08:04:53.062Z,976.00
2018-07-16T08:05:53.025Z,976.03
2018-07-16T08:06:52.926Z,976.02
2018-07-16T08:07:52.935Z,976.03
2018-07-16T08:08:52.776Z,976.02
2018-07-16T08:09:52.746Z,976.00
2018-07-16T08:10:52.631Z,976.01
2018-07-16T08:11:52.657Z,976.01
2018-07-16T08:12:52.488Z,976.03
2018-07-16T08:13:52.483Z,976.01
2018-07-16T08:14:52.348Z,976.01
2018-07-16T08:15:52.380Z,976.02
2018-07-16T08:16:52.201Z,975.97
2018-07-16T08:17:52.191Z,975.96
2018-07-16T08:18:52.061Z,975.99
2018-07-16T08:19:51.986Z,975.96
2018-07-16T08:20:52.067Z,975.98
2018-07-16T08:21:51.845Z,975.96
2018-07-16T08:22:51.811Z,975.90
2018-07-16T08:23:51.698Z,975.94
2018-07-16T08:24:51.724Z,975.92
2018-07-16T08:25:51.555Z,975.94
2018-07-16T08:26:51.489Z,975.90
2018-07-16T08:27:51.412Z,975.89
2018-07-16T08:28:51.444Z,975.89
2018-07-16T08:29:51.270Z,975.85
2018-07-16T08:30:51.252Z,975.87
2018-07-16T08:31:51.126Z,975.87
2018-07-16T08:32:51.165Z,975.88
2018-07-16T08:33:50.983Z,975.84
2018-07-16T08:34:50.910Z,975.86
2018-07-16T08:35:50.878Z,975.90
2018-07-16T08:36:50.773Z,975.92
2018-07-16T08:37:50.792Z,975.91
2018-07-16T08:38:50.629Z,975.91
2018-07-16T08:39:50.599Z,975.94
2018-07-16T08:40:50.483Z,975.95
2018-07-16T08:41:50.510Z,975.96
2018-07-16T08:42:50.347Z,975.95
2018-07-16T08:43:50.275Z,976.00
2018-07-16T08:44:50.223Z,975.98
2018-07-16T08:45:50.128Z,976.01
2018-07-16T08:46:50.135Z,976.00
2018-07-16T08:47:49.985Z,975.97
2018-07-16T08:48:49.945Z,975.99
2018-07-16T08:49:49.847Z,975.95
2018-07-16T08:50:49.859Z,975.95
2018-07-16T08:51:49.705Z,975.97
2018-07-16T08:52:49.686Z,975.94
2018-07-16T08:53:49.561Z,975.95
2018-07-16T08:54:49.579Z,975.95
2018-07-16T08:55:49.417Z,975.97
2018-07-16T08:56:49.387Z,975.93
2018-07-16T08:57:49.279Z,975.94
2018-07-16T08:58:49.297Z,975.94
2018-07-16T08:59:49.134Z,975.96
2018-07-16T09:00:49.105Z,975.97
2018-07-16T09:01:48.997Z,975.95
2018-07-16T09:02:49.014Z,975.92
2018-07-16T09:03:48.851Z,975.94
2018-07-16T09:04:48.831Z,975.95
2018-07-16T09:05:48.717Z,975.94
2018-07-16T09:06:48.740Z,975.87
2018-07-16T09:07:48.571Z,975.88
2018-07-16T09:08:48.547Z,975.87
2018-07-16T09:09:48.433Z,975.90
2018-07-16T09:10:48.461Z,975.89
2018-07-16T09:11:48.290Z,975.91
2018-07-16T09:12:48.269Z,975.87
2018-07-16T09:13:48.154Z,975.87
2018-07-16T09:14:48.178Z,975.89
2018-07-16T09:15:48.015Z,975.94
2018-07-16T09:16:48.052Z,975.92
2018-07-16T09:17:47.880Z,975.94
2018-07-16T09:18:47.913Z,975.95
2018-07-16T09:19:47.731Z,976.00
2018-07-16T09:20:47.667Z,975.99
2018-07-16T09:21:47.683Z,975.99
2018-07-16T09:22:47.527Z,976.00
2018-07-16T09:23:47.489Z,976.00
2018-07-16T09:24:47.384Z,975.96
2018-07-16T09:25:47.403Z,975.97
2018-07-16T09:26:47.244Z,975.96
2018-07-16T09:27:47.208Z,975.92
2018-07-16T09:28:47.103Z,975.93
2018-07-16T09:29:47.123Z,975.95
2018-07-16T09:30:46.965Z,975.93
2018-07-16T09:31:46.931Z,975.87
2018-07-16T09:32:46.926Z,975.86
2018-07-16T09:33:46.847Z,975.85
2018-07-16T09:34:46.690Z,975.84
2018-07-16T09:35:46.649Z,975.83
2018-07-16T09:36:46.547Z,975.80
2018-07-16T09:37:46.564Z,975.82
2018-07-16T09:38:46.409Z,975.78
2018-07-16T09:39:46.371Z,975.77
2018-07-16T09:40:46.271Z,975.78
2018-07-16T09:41:46.282Z,975.77
2018-07-16T09:42:46.132Z,975.74
2018-07-16T09:43:46.088Z,975.74
2018-07-16T09:44:46.006Z,975.72
2018-07-16T09:45:46.004Z,975.71
2018-07-16T09:46:45.858Z,975.75
2018-07-16T09:47:45.811Z,975.74
2018-07-16T09:48:45.718Z,975.73
2018-07-16T09:49:45.725Z,975.72
2018-07-16T09:50:45.584Z,975.71
2018-07-16T09:51:45.528Z,975.72
2018-07-16T09:52:45.439Z,975.70
2018-07-16T09:53:45.447Z,975.66
2018-07-16T09:54:45.302Z,975.68
2018-07-16T09:55:45.255Z,975.68
2018-07-16T09:56:45.164Z,975.66
2018-07-16T09:57:45.160Z,975.69
2018-07-16T09:58:45.027Z,975.67
2018-07-16T09:59:45.069Z,975.66
2018-07-16T10:00:44.887Z,975.68
2018-07-16T10:01:44.877Z,975.69
2018-07-16T10:02:44.747Z,975.67
2018-07-16T10:03:44.793Z,975.71
2018-07-16T10:04:44.611Z,975.69
2018-07-16T10:05:44.606Z,975.69
2018-07-16T10:06:44.474Z,975.65
2018-07-16T10:07:44.508Z,975.61
2018-07-16T10:08:44.338Z,975.61
2018-07-16T10:09:44.318Z,975.59
2018-07-16T10:10:44.202Z,975.59
2018-07-16T10:11:44.228Z,975.56
2018-07-16T10:12:44.066Z,975.60
2018-07-16T10:13:44.037Z,975.55
2018-07-16T10:14:43.926Z,975.52
2018-07-16T10:15:43.949Z,975.51
2018-07-16T10:16:43.796Z,975.52
2018-07-16T10:17:43.758Z,975.51
2018-07-16T10:18:43.656Z,975.50
2018-07-16T10:19:43.668Z,975.50
2018-07-16T10:20:43.518Z,975.50
2018-07-16T10:21:43.477Z,975.46
2018-07-16T10:22:43.381Z,975.47
2018-07-16T10:23:43.389Z,975.43
2018-07-16T10:24:43.242Z,975.46
2018-07-16T10:25:43.260Z,975.46
2018-07-16T10:26:43.105Z,975.42
2018-07-16T10:27:43.110Z,975.43
2018-07-16T10:28:42.982Z,975.41
2018-07-16T10:29:43.023Z,975.41
2018-07-16T10:30:42.835Z,975.40
2018-07-16T10:31:42.830Z,975.42
2018-07-16T10:32:42.699Z,975.40
2018-07-16T10:33:42.756Z,975.41
2018-07-16T10:34:42.563Z,975.39
2018-07-16T10:35:42.551Z,975.39
2018-07-16T10:36:42.426Z,975.38
2018-07-16T10:37:42.462Z,975.40
2018-07-16T10:38:42.291Z,975.40
2018-07-16T10:39:42.270Z,975.36
2018-07-16T10:40:42.157Z,975.38
2018-07-16T10:41:42.178Z,975.37
2018-07-16T10:42:42.029Z,975.36
2018-07-16T10:43:41.989Z,975.32
2018-07-16T10:44:41.888Z,975.32
2018-07-16T10:45:41.898Z,975.31
2018-07-16T10:46:41.757Z,975.31
2018-07-16T10:47:41.706Z,975.36
2018-07-16T10:48:41.621Z,975.32
2018-07-16T10:49:41.691Z,975.28
2018-07-16T10:50:41.491Z,975.30
2018-07-16T10:51:41.529Z,975.24
2018-07-16T10:52:41.354Z,975.24
2018-07-16T10:53:41.337Z,975.22
2018-07-16T10:54:41.218Z,975.21
2018-07-16T10:55:41.248Z,975.22
2018-07-16T10:56:41.084Z,975.18
2018-07-16T10:57:41.057Z,975.17
2018-07-16T10:58:40.952Z,975.15
2018-07-16T10:59:40.971Z,975.14
2018-07-16T11:00:40.820Z,975.12
2018-07-16T11:01:40.777Z,975.14
2018-07-16T11:02:40.689Z,975.08
2018-07-16T11:03:40.693Z,975.15
2018-07-16T11:04:40.554Z,975.13
2018-07-16T11:05:40.600Z,975.12
2018-07-16T11:06:40.420Z,975.12
2018-07-16T11:07:40.408Z,975.12
2018-07-16T11:08:40.286Z,975.12
2018-07-16T11:09:40.319Z,975.07
2018-07-16T11:10:40.155Z,975.10
2018-07-16T11:11:40.127Z,975.10
2018-07-16T11:12:40.027Z,975.06
2018-07-16T11:13:40.038Z,975.06
2018-07-16T11:14:39.891Z,975.04
2018-07-16T11:15:39.848Z,975.09
2018-07-16T11:16:39.761Z,975.00
2018-07-16T11:17:39.759Z,975.01
2018-07-16T11:18:39.629Z,974.96
2018-07-16T11:19:39.669Z,974.97
2018-07-16T11:20:39.499Z,974.99
2018-07-16T11:21:39.477Z,974.99
2018-07-16T11:22:39.367Z,974.99
2018-07-16T11:23:39.388Z,974.99
2018-07-16T11:24:39.231Z,974.99
2018-07-16T11:25:39.202Z,975.03
2018-07-16T11:26:39.103Z,974.98
2018-07-16T11:27:39.110Z,975.00
2018-07-16T11:28:38.973Z,975.00
2018-07-16T11:29:39.019Z,974.96
2018-07-16T11:30:38.838Z,974.93
2018-07-16T11:31:38.827Z,974.98
2018-07-16T11:32:38.710Z,974.91
2018-07-16T11:33:38.738Z,974.94
2018-07-16T11:34:38.576Z,974.88
2018-07-16T11:35:38.572Z,974.88
2018-07-16T11:36:38.445Z,974.90
2018-07-16T11:37:38.459Z,974.92
2018-07-16T11:38:38.323Z,974.93
2018-07-16T11:39:38.267Z,974.92
2018-07-16T11:40:38.183Z,974.90
2018-07-16T11:41:38.180Z,974.92
2018-07-16T11:42:38.053Z,974.90
2018-07-16T11:43:38.093Z,974.86
2018-07-16T11:44:37.921Z,974.81
2018-07-16T11:45:37.900Z,974.80
2018-07-16T11:46:37.793Z,974.77
2018-07-16T11:47:37.808Z,974.75
2018-07-16T11:48:37.665Z,974.76
2018-07-16T11:49:37.617Z,974.73
2018-07-16T11:50:37.535Z,974.70
2018-07-16T11:51:37.527Z,974.69
2018-07-16T11:52:37.401Z,974.66
2018-07-16T11:53:37.439Z,974.70
2018-07-16T11:54:37.271Z,974.64
2018-07-16T11:55:37.248Z,974.65
2018-07-16T11:56:37.142Z,974.64
2018-07-16T11:57:37.159Z,974.65
2018-07-16T11:58:37.016Z,974.67
2018-07-16T11:59:36.968Z,974.66
2018-07-16T12:00:36.882Z,974.64
2018-07-16T12:01:36.880Z,974.65
2018-07-16T12:02:36.753Z,974.63
2018-07-16T12:03:36.869Z,974.58
2018-07-16T12:04:36.648Z,974.62
2018-07-16T12:05:36.602Z,974.58
2018-07-16T12:06:36.492Z,974.59
2018-07-16T12:07:36.509Z,974.61
2018-07-16T12:08:36.364Z,974.58
2018-07-16T12:09:36.317Z,974.61
2018-07-16T12:10:36.233Z,974.57
2018-07-16T12:11:36.229Z,974.56
2018-07-16T12:12:36.171Z,974.59
2018-07-16T12:13:36.141Z,974.58
2018-07-16T12:14:35.978Z,974.57
2018-07-16T12:15:35.950Z,974.60
2018-07-16T12:16:35.847Z,974.62
2018-07-16T12:17:35.858Z,974.63
2018-07-16T12:18:35.717Z,974.62
2018-07-16T12:19:35.774Z,974.60
2018-07-16T12:20:35.698Z,974.61
2018-07-16T12:21:35.585Z,974.59
2018-07-16T12:22:35.463Z,974.60
2018-07-16T12:23:35.490Z,974.58
2018-07-16T12:24:35.328Z,974.60
2018-07-16T12:25:35.298Z,974.58
2018-07-16T12:26:35.203Z,974.60
2018-07-16T12:27:35.209Z,974.55